• Join FlightAware (Why Join?)
  • Login
  • US Flag 
 
10:00PM EST


 

Airport Tracker/Info


-or-


 

Live Flight TrackerFlight Track Log ✈ N18PN ✈ 24-Jul-2013 ✈ KTTN - 2B3

Flight Track Log - Related Links

Times and Time Zones

All times are in EDT time to prevent confusion due to time zone crossing. See the N18PN flight status page for this flight to view local times or setup timezone preferences in your user account.

Time Position Orientation Groundspeed Altitude Reporting Facility
EDT Latitude Longitude Course Direction KTS MPH feet Rate Location/Type
08:45AM 40.2500 -74.8500 31° Northeast 105 121 1,400  Level Philadelphia TRACON
08:46AM 40.2333 -74.9000 246° West 115 132 2,500 780 Climbing Philadelphia TRACON
08:47AM 40.2500 -74.9167 323° Northwest 119 137 3,100 660 Climbing Philadelphia TRACON
08:48AM 40.2833 -74.9500 323° Northwest 121 139 3,800 480 Climbing Philadelphia TRACON
08:49AM 40.3167 -74.9667 339° North 135 155 4,100 120 Climbing Philadelphia TRACON
08:50AM 40.4630 -74.6646 31° Northeast  Level Estimated
08:50AM 40.3333 -75.0167 294° West 156 180 4,100  Level Philadelphia TRACON
08:52AM 40.3848 -74.9717 34° Northeast  Level Estimated
08:59AM 40.5964 -74.7859 34° Northeast  Level Estimated
09:00AM 40.6267 -74.7592 34° Northeast  Level Estimated
09:01AM 40.6569 -74.7325 34° Northeast  Level Estimated
09:02AM 40.6871 -74.7058 34° Northeast  Level Estimated
09:03AM 40.7173 -74.6791 34° Northeast  Level Estimated
09:04AM 40.7474 -74.6524 34° Northeast  Level Estimated
09:05AM 40.7776 -74.6256 34° Northeast  Level Estimated
09:06AM 40.8078 -74.5988 34° Northeast  Level Estimated
09:07AM 40.8380 -74.5720 34° Northeast  Level Estimated
09:08AM 40.8681 -74.5452 34° Northeast  Level Estimated
09:09AM 40.8983 -74.5183 34° Northeast  Level Estimated
09:10AM 40.9284 -74.4914 34° Northeast  Level Estimated
09:11AM 40.9586 -74.4645 34° Northeast  Level Estimated
09:12AM 40.9887 -74.4376 34° Northeast  Level Estimated
09:13AM 41.0188 -74.4106 34° Northeast  Level Estimated
09:14AM 41.0490 -74.3836 34° Northeast  Level Estimated
09:15AM 41.0791 -74.3566 34° Northeast  Level Estimated
09:16AM 41.1092 -74.3296 34° Northeast  Level Estimated
09:17AM 41.1393 -74.3025 34° Northeast  Level Estimated
09:18AM 41.1694 -74.2754 34° Northeast  Level Estimated
09:19AM 41.1995 -74.2483 34° Northeast  Level Estimated
09:20AM 41.2296 -74.2212 34° Northeast  Level Estimated
09:21AM 41.2597 -74.1940 34° Northeast  Level Estimated
09:22AM 41.2898 -74.1668 34° Northeast  Level Estimated
09:23AM 41.3198 -74.1396 34° Northeast  Level Estimated
09:24AM 41.3499 -74.1124 34° Northeast  Level Estimated
09:25AM 41.3800 -74.0851 34° Northeast  Level Estimated
09:25AM 41.7286 -75.2969 34° Northeast 186 214 7,000  Level Boston Center
09:26AM 41.4100 -74.0578 34° Northeast  Level Estimated
09:26AM 41.7711 -75.2656 29° Northeast 191 220 7,000  Level Boston Center
09:27AM 41.4400 -74.0305 34° Northeast  Level Estimated
09:27AM 41.8136 -75.2339 29° Northeast 186 214 7,000  Level Boston Center
09:28AM 41.4701 -74.0032 34° Northeast  Level Estimated
09:28AM 41.8561 -75.1997 31° Northeast 176 203 7,000  Level Boston Center
09:29AM 41.5001 -73.9758 34° Northeast  Level Estimated
09:29AM 41.8986 -75.1681 29° Northeast 176 203 7,000  Level Boston Center
09:30AM 41.5301 -73.9484 34° Northeast  Level Estimated
09:30AM 41.9472 -75.1339 28° Northeast 176 203 7,000  Level Boston Center
09:31AM 41.9878 -75.1019 30° Northeast 171 197 7,000  Level Boston Center
09:32AM 42.0303 -75.0675 31° Northeast 171 197 7,100 60 Climbing Boston Center
09:33AM 42.0767 -75.0358 27° Northeast 171 197 7,200  Climbing Boston Center
09:34AM 42.1211 -75.0097 24° Northeast 171 197 7,200  Level Boston Center
09:35AM 42.1617 -74.9722 34° Northeast 171 197 7,200  Level Boston Center
09:36AM 42.1981 -74.9231 45° Northeast 176 203 7,200  Level Boston Center
09:37AM 42.2244 -74.8681 57° Northeast 171 197 7,200  Level Boston Center
09:38AM 42.2547 -74.8133 53° Northeast 171 197 7,200  Level Boston Center
09:39AM 42.2853 -74.7497 57° Northeast 181 208 7,200  Level Boston Center
09:40AM 42.3133 -74.6919 57° Northeast 186 214 7,200 -120 Level Boston Center
09:41AM 42.3375 -74.6394 58° Northeast 186 214 7,000 -60 Descending Boston Center
09:42AM 42.3656 -74.5842 56° Northeast 190 219 7,100  Climbing Boston Center
09:43AM 42.3958 -74.5206 57° Northeast 198 228 7,100  Level Boston Center
09:44AM 42.4261 -74.4597 56° Northeast 191 220 7,100  Level Boston Center
09:45AM 42.4586 -74.4017 53° Northeast 195 224 7,100  Level Boston Center
09:46AM 42.4889 -74.3378 57° Northeast 194 223 7,100  Level Boston Center
09:47AM 42.5169 -74.2767 58° Northeast 193 222 7,100  Level Boston Center
09:48AM 42.5492 -74.2128 56° Northeast 195 224 7,100  Level Boston Center
09:49AM 42.5794 -74.1458 58° Northeast 195 224 7,100  Level Boston Center
09:50AM 42.6181 -74.0736 54° Northeast 194 223 7,100  Level Boston Center
09:51AM 42.6436 -74.0236 55° Northeast 192 221 7,100  Level Boston Center
09:52AM 42.6717 -73.9622 58° Northeast 192 221 7,100  Level Boston Center
09:53AM 42.7014 -73.9036 55° Northeast 192 221 7,100  Level Boston Center
09:54AM 42.7294 -73.8447 57° Northeast 192 221 7,100  Level Boston Center
09:55AM 42.7614 -73.7833 55° Northeast 192 221 7,100  Level Boston Center
09:56AM 42.7850 -73.7131 65° Northeast 187 215 7,100  Level Boston Center
09:57AM 42.8131 -73.6431 61° Northeast 188 216 7,200  Climbing Boston Center
09:58AM 42.8408 -73.5783 60° Northeast 189 217 7,200  Level Boston Center
09:59AM 42.8642 -73.5222 60° Northeast 189 217 7,200  Level Boston Center
10:00AM 42.8878 -73.4575 64° Northeast 192 221 7,200  Level Boston Center
10:01AM 42.9153 -73.3925 60° Northeast 192 221 7,200  Level Boston Center
10:02AM 42.9408 -73.3306 61° Northeast 193 222 7,200 -60 Level Boston Center
10:03AM 42.9706 -73.2544 62° Northeast 209 241 7,100 -60 Descending Boston Center
10:04AM 42.9983 -73.1811 63° Northeast 196 226 7,100  Level Boston Center
10:05AM 43.0214 -73.1217 62° Northeast 191 220 7,100  Level Boston Center
10:06AM 43.0511 -73.0508 60° Northeast 191 220 7,100  Level Boston Center
10:07AM 43.0742 -72.9944 61° Northeast 191 220 7,100  Level Boston Center
10:08AM 43.0997 -72.9319 61° Northeast 191 220 7,100  Level Boston Center
10:09AM 43.1228 -72.8697 63° Northeast 185 213 7,100  Level Boston Center
10:10AM 43.1481 -72.8072 61° Northeast 179 206 7,100  Level Boston Center
10:12AM 43.1733 -72.7447 61° Northeast 179 206 7,100 -240 Level Boston Center
10:13AM 43.2025 -72.6681 62° Northeast 179 206 6,600 -420 Descending Boston Center
10:14AM 43.2278 -72.6025 62° Northeast 179 206 6,300 -300 Descending Boston Center
10:15AM 43.2528 -72.5397 61° Northeast 179 206 6,000 -360 Descending Boston Center
10:16AM 43.2758 -72.4800 62° Northeast 179 206 5,600 -420 Descending Boston Center
10:17AM 43.2967 -72.4286 61° Northeast 174 200 5,200 -300 Descending Boston Center
10:18AM 43.3172 -72.3744 62° Northeast 169 194 5,000 -120 Descending Boston Center
10:19AM 43.3361 -72.3258 62° Northeast 162 186 5,000  Level Boston Center